»·PEaware :: N9135K KPSP-KTOA

N9135K :: KPSP-KTOA

FLIGHT INFORMATION

Flight Status: Arrived
Operator: Privately registered:
United States
More flights under this callsign
Pilot: John R. (31973)
Aircraft: CESSNA 172 SKYHAWK
(C172)
More flights by this aircraft type
Origin: KPSP Palm Springs Intl
United States
Destination: KTOA Zamperini
United States
More flights between these airports :: More routes between these airports
Route:
File this flight plan on PilotEdge
Remarks:
Altitude:
(Current/Filed)
6,500ft
Speed:
(Current/Filed)
100kts
Departed: 20-Dec-20 07:58 PM
Arrived: 20-Dec-20 08:57 PM
Distance/Time
Traveled:
92nm/0:59
Distance/Time
To Go:
Arrived

Flight Plot

Page will automatically refresh every two minutes.

Flight plan parsing failed; only flown route is shown


Map Options




Map Legend


Flown Route
Filed Route
Departure Airport
Arrival Airport
Navaid (VOR, NDB)
Fix

Horizontal Profiles

Position Reports

Time Latitude Longitude Heading Altitude Ground
Speed
20-Dec-20 19:47 33.823755 -116.497209 55 480ft 0kts
20-Dec-20 19:48 33.823755 -116.497208 55 480ft 0kts
20-Dec-20 19:49 33.823755 -116.497208 55 480ft 0kts
20-Dec-20 19:50 33.823755 -116.497208 55 480ft 0kts
20-Dec-20 19:51 33.823756 -116.497208 55 480ft 0kts
20-Dec-20 19:52 33.823756 -116.497207 55 480ft 0kts
20-Dec-20 19:53 33.823756 -116.497207 55 480ft 0kts
20-Dec-20 19:54 33.823853 -116.497210 304 480ft 0kts
20-Dec-20 19:55 33.824715 -116.499125 300 480ft 8kts
20-Dec-20 19:57 33.824616 -116.499625 233 480ft 0kts
20-Dec-20 19:58 33.828821 -116.504017 323 490ft 77kts
20-Dec-20 19:59 33.848913 -116.518284 349 1124ft 93kts
20-Dec-20 20:00 33.875533 -116.522706 342 1750ft 98kts
20-Dec-20 20:01 33.901273 -116.534513 338 2349ft 98kts
20-Dec-20 20:02 33.923335 -116.550621 268 2937ft 96kts
20-Dec-20 20:03 33.922606 -116.582552 269 3548ft 95kts
20-Dec-20 20:04 33.922666 -116.614307 270 4142ft 93kts
20-Dec-20 20:05 33.922742 -116.645364 270 4730ft 91kts
20-Dec-20 20:06 33.922811 -116.675780 270 5318ft 89kts
20-Dec-20 20:07 33.922870 -116.705437 270 5904ft 87kts
20-Dec-20 20:08 33.922922 -116.734345 270 6467ft 86kts
20-Dec-20 20:09 33.922968 -116.768540 270 6507ft 113kts
20-Dec-20 20:10 33.923014 -116.806927 270 6500ft 115kts
20-Dec-20 20:11 33.923025 -116.845527 267 6499ft 115kts
20-Dec-20 20:12 33.914709 -116.882713 252 6500ft 115kts
20-Dec-20 20:13 33.905235 -116.919557 252 6500ft 115kts
20-Dec-20 20:13 33.897277 -116.950351 252 6500ft 115kts
20-Dec-20 20:15 33.886169 -116.993268 252 6500ft 115kts
20-Dec-20 20:16 33.876592 -117.030215 252 6500ft 115kts
20-Dec-20 20:17 33.867045 -117.066994 252 6500ft 115kts
20-Dec-20 20:17 33.859055 -117.097735 252 6500ft 115kts
20-Dec-20 20:19 33.847874 -117.140696 252 6500ft 115kts
20-Dec-20 20:19 33.839927 -117.171193 252 6500ft 115kts
20-Dec-20 20:20 33.830341 -117.207928 252 6500ft 115kts
20-Dec-20 20:21 33.820676 -117.244920 252 6500ft 115kts
20-Dec-20 20:22 33.811027 -117.281797 252 6500ft 115kts
20-Dec-20 20:23 33.801387 -117.318591 252 6500ft 115kts
20-Dec-20 20:24 33.791750 -117.355322 252 6500ft 115kts
20-Dec-20 20:25 33.782087 -117.392104 252 6500ft 115kts
20-Dec-20 20:26 33.772385 -117.428982 252 6500ft 115kts
20-Dec-20 20:27 33.762725 -117.465656 252 6500ft 115kts
20-Dec-20 20:28 33.753000 -117.502522 252 6500ft 115kts
20-Dec-20 20:29 33.743289 -117.539288 252 6500ft 115kts
20-Dec-20 20:30 33.733558 -117.576077 252 6500ft 115kts
20-Dec-20 20:31 33.723829 -117.612812 252 6500ft 115kts
20-Dec-20 20:32 33.714087 -117.649547 252 6500ft 115kts
20-Dec-20 20:33 33.704333 -117.686279 252 6500ft 115kts
20-Dec-20 20:34 33.694569 -117.722995 252 6500ft 115kts
20-Dec-20 20:35 33.684714 -117.760003 252 6436ft 119kts
20-Dec-20 20:36 33.674654 -117.797726 252 6227ft 113kts
20-Dec-20 20:37 33.665205 -117.833150 252 6019ft 110kts
20-Dec-20 20:38 33.655853 -117.868144 252 5740ft 109kts
20-Dec-20 20:39 33.646675 -117.902442 252 5493ft 104kts
20-Dec-20 20:40 33.638260 -117.933896 252 5497ft 96kts
20-Dec-20 20:41 33.630064 -117.964457 252 5500ft 96kts
20-Dec-20 20:42 33.621870 -117.994972 252 5500ft 96kts
20-Dec-20 20:43 33.613646 -118.025570 252 5500ft 96kts
20-Dec-20 20:44 33.605430 -118.056128 252 5500ft 96kts
20-Dec-20 20:45 33.606627 -118.087833 315 5121ft 112kts
20-Dec-20 20:46 33.629044 -118.115404 313 4631ft 116kts
20-Dec-20 20:47 33.651349 -118.143752 313 4132ft 114kts
20-Dec-20 20:48 33.672362 -118.170510 313 3490ft 109kts
20-Dec-20 20:49 33.693278 -118.197178 313 2794ft 110kts
20-Dec-20 20:50 33.713077 -118.222424 313 2482ft 92kts
20-Dec-20 20:51 33.729965 -118.243960 313 2499ft 87kts
20-Dec-20 20:52 33.746599 -118.265210 313 2495ft 84kts
20-Dec-20 20:53 33.763859 -118.283422 319 1906ft 79kts
20-Dec-20 20:54 33.779628 -118.302954 308 1159ft 83kts
20-Dec-20 20:55 33.792661 -118.322410 309 446ft 72kts
20-Dec-20 20:56 33.804215 -118.339886 308 106ft 39kts
20-Dec-20 20:57 33.805738 -118.343164 284 106ft 0kts
20-Dec-20 20:58 33.805529 -118.345723 219 106ft 10kts
20-Dec-20 20:59 33.804499 -118.346688 216 106ft 0kts

Navigation Log

Ident Type
Flight plan parsing failed, navigation log unavailable